Accueil
METAR-TAF:

METAR-TAF

Aéroports :

Petawawa, Ontario, Canada

latitude: 45-57N, longitude: 077-19W, altitude: 130 m

Observation

Le bulletin a été fait il y a 20 minutes, à 03:00 UTC
Vent 2 kt de ouest
Température 15°C
Humidité 100%
Pression 1016 hPa
Visibilité: 14.5 km
Ciel clair

METAR: CYWA 190300Z AUTO 26002KT 9SM CLR 15/15 A3000 RMK SLP160

Heure: 23:20 (03:20 UTC)

Prévision

Le bulletin a été fait il y a 3 heures et 50 minutes, à 23:30 UTC
Prévision valable du 19 à 00 UTC au 19 à 12 UTC
Vent 5 kt de nord/nord-ouest
Visibilité: 10 km
Nuages épars à une hauteur de 4000 ft
A partir de 19 à 0200 UTC
Vent 3 kt de direction variable
Visibilité: 10 km
Ciel clair
Probabilité 40%
du 19 à 06 UTC au 19 à 12 UTC
Visibilité: 0.8 km
brouillard

TAF: CYWA 182330Z 1900/1912 33005KT P6SM SCT040 FM190200 VRB03KT P6SM SKC PROB40 1906/1912 1/2SM FG RMK FCST BASED ON AUTO OBS. NXT FCST BY 190600Z

Observations et prévisions météorologiques de plus de 4000 aéroports (messages METAR et TAF).

Les stations disponibles sont représentées par des disques jaunes et rouges sur la carte.

Passer la souris dessus pour voir le nom de la station.

Cliquer dessus pour voir les observations et prévisions météorologiques.

Pour changer de carte: cliquez sur les boutons verts avec une croix noire pour zoomer, sur le bouton vert avec un tiret pour effectuer un zoom arrière, ou sur les flèches vertes pour les cartes adjacentes.


METAR-TAF: